Time;durP1;ratioP1;P1;durP2;ratioP2;P2;SDS_P1;SDS_P2;PMS_P1;PMS_P2;Temp;Humidity;BMP_temperature;BMP_pressure;BME280_temperature;BME280_humidity;BME280_pressure;Samples;Min_cycle;Max_cycle;Signal;HPM_P1;HPM_P2
2021/05/27 00:02:12;;;;;;;6.43;5.93;;;;;;;11.26;35.91;100572.56;4913773;28;97132;-72
2021/05/27 00:04:40;;;;;;;6.93;6.43;;;;;;;11.28;35.94;100574.41;4910430;28;97056;-73
2021/05/27 00:07:08;;;;;;;7.10;6.40;;;;;;;11.27;35.75;100566.38;4912055;28;97821;-73
2021/05/27 00:09:35;;;;;;;6.97;6.30;;;;;;;11.27;35.88;100575.25;4931917;28;100734;-73
2021/05/27 00:12:03;;;;;;;7.15;6.60;;;;;;;11.25;36.02;100566.34;4924402;28;96794;-72
2021/05/27 00:14:31;;;;;;;7.30;6.70;;;;;;;11.26;35.96;100560.16;4920549;28;96633;-72
2021/05/27 00:16:58;;;;;;;7.45;6.72;;;;;;;11.27;36.01;100569.06;4921328;28;97693;-72
2021/05/27 00:19:26;;;;;;;7.75;7.07;;;;;;;11.28;35.98;100563.75;4911247;28;101218;-73
2021/05/27 00:21:54;;;;;;;6.88;6.38;;;;;;;11.29;36.02;100568.19;4916253;28;97603;-72
2021/05/27 00:24:21;;;;;;;6.68;6.18;;;;;;;11.31;35.67;100563.81;4926863;28;97346;-72
2021/05/27 00:26:48;;;;;;;6.90;6.40;;;;;;;11.31;36.12;100563.81;4908868;28;97778;-73
2021/05/27 00:29:16;;;;;;;6.43;5.93;;;;;;;11.35;35.98;100567.41;4907461;28;97051;-73
2021/05/27 00:31:43;;;;;;;7.28;6.57;;;;;;;11.32;36.00;100562.06;4912651;28;96838;-72
2021/05/27 00:34:10;;;;;;;7.18;6.57;;;;;;;11.33;36.02;100567.41;4915571;28;97280;-72
2021/05/27 00:36:38;;;;;;;6.70;6.20;;;;;;;11.35;35.87;100568.31;4898989;28;98838;-73
2021/05/27 00:39:06;;;;;;;7.03;6.43;;;;;;;11.33;36.10;100567.41;4906796;28;99191;-73
2021/05/27 00:41:33;;;;;;;7.10;6.50;;;;;;;11.38;36.03;100572.81;4909258;28;97243;-74
2021/05/27 00:44:00;;;;;;;7.25;6.70;;;;;;;11.40;35.98;100573.69;4916220;28;97534;-73
2021/05/27 00:46:28;;;;;;;7.40;6.75;;;;;;;11.41;36.14;100567.50;4909233;28;97111;-73
2021/05/27 00:48:59;;;;;;;7.10;6.60;;;;;;;11.43;36.11;100571.09;4909586;28;97833;-72
2021/05/27 00:51:28;;;;;;;7.18;6.47;;;;;;;11.46;35.92;100577.34;4925447;28;97356;-73
2021/05/27 00:53:56;;;;;;;7.75;7.05;;;;;;;11.49;35.96;100580.06;4897925;28;96889;-73
2021/05/27 00:56:24;;;;;;;7.00;6.30;;;;;;;11.50;35.94;100579.19;4915420;28;98118;-73
2021/05/27 00:58:51;;;;;;;6.90;6.35;;;;;;;11.50;35.78;100581.88;4919096;28;101044;-74
2021/05/27 01:01:19;;;;;;;7.45;6.93;;;;;;;11.50;35.91;100583.63;4916296;28;97069;-73
2021/05/27 01:03:47;;;;;;;7.05;6.50;;;;;;;11.47;35.90;100578.25;4915865;28;97872;-72
2021/05/27 01:06:14;;;;;;;6.88;6.40;;;;;;;11.45;36.04;100583.53;4897778;28;100272;-73
2021/05/27 01:08:41;;;;;;;6.95;6.30;;;;;;;11.44;36.03;100573.78;4914963;28;99582;-72
2021/05/27 01:11:09;;;;;;;6.78;6.28;;;;;;;11.47;36.04;100572.94;4902756;28;97425;-72
2021/05/27 01:13:37;;;;;;;6.70;6.20;;;;;;;11.49;36.17;100582.72;4916000;28;98655;-72
2021/05/27 01:16:05;;;;;;;5.78;5.47;;;;;;;11.47;35.94;100580.94;4904207;28;98935;-72
2021/05/27 01:18:33;;;;;;;7.53;6.72;;;;;;;11.44;35.98;100579.09;4908234;28;100477;-73
2021/05/27 01:21:00;;;;;;;5.90;5.50;;;;;;;11.45;36.18;100569.34;4907157;28;96927;-72
2021/05/27 01:23:33;;;;;;;6.68;6.20;;;;;;;11.46;36.08;100579.13;4912338;28;96803;-72
2021/05/27 01:26:01;;;;;;;6.22;5.72;;;;;;;11.45;36.15;100574.69;4898989;28;99390;-72
2021/05/27 01:28:30;;;;;;;6.40;5.80;;;;;;;11.48;36.04;100575.63;4914575;28;102823;-73
2021/05/27 01:30:59;;;;;;;7.07;6.38;;;;;;;11.48;36.22;100583.59;4930580;28;97128;-72
2021/05/27 01:33:32;;;;;;;9.02;6.47;;;;;;;11.49;35.80;100585.38;4899385;28;97365;-72
2021/05/27 01:36:01;;;;;;;7.40;6.82;;;;;;;11.52;36.05;100579.22;4916047;28;97687;-72
2021/05/27 01:38:29;;;;;;;7.45;6.68;;;;;;;11.51;36.12;100580.06;4892150;28;97741;-72
2021/05/27 01:40:59;;;;;;;6.38;5.80;;;;;;;11.50;36.13;100576.53;4914541;28;97527;-72
2021/05/27 01:43:28;;;;;;;6.25;5.75;;;;;;;11.49;36.13;100576.53;4898938;28;97224;-72
2021/05/27 01:45:56;;;;;;;7.43;6.18;;;;;;;11.48;36.24;100567.63;4921798;28;99183;-72
2021/05/27 01:48:24;;;;;;;6.43;5.82;;;;;;;11.48;36.14;100574.72;4887714;28;99618;-72
2021/05/27 01:50:52;;;;;;;6.40;5.80;;;;;;;11.48;36.28;100575.63;4936792;28;97247;-72
2021/05/27 01:53:23;;;;;;;6.55;5.85;;;;;;;11.49;36.37;100577.38;4906841;28;97597;-73
2021/05/27 01:55:52;;;;;;;6.47;5.88;;;;;;;11.48;36.23;100580.03;4912168;28;99737;-72
2021/05/27 01:58:23;;;;;;;6.35;5.72;;;;;;;11.50;36.17;100579.19;4908471;28;99887;-72
2021/05/27 02:00:50;;;;;;;5.53;5.13;;;;;;;11.47;36.12;100579.13;4910518;28;96973;-73
2021/05/27 02:03:25;;;;;;;6.30;5.70;;;;;;;11.45;36.26;100575.53;4891849;28;96929;-71
2021/05/27 02:06:11;;;;;;;5.80;5.22;;;;;;;11.46;36.15;100588.00;4898103;28;99357;-72
2021/05/27 02:09:07;;;;;;;5.30;4.90;;;;;;;11.46;36.28;100576.44;4901402;28;100853;-70
2021/05/27 02:11:32;;;;;;;5.45;5.07;;;;;;;11.46;36.17;100576.44;4902168;28;97009;-72
2021/05/27 02:14:03;;;;;;;5.65;5.22;;;;;;;11.43;36.26;100581.75;4907819;28;96895;-72
2021/05/27 02:16:31;;;;;;;5.32;4.82;;;;;;;11.40;36.36;100585.25;4906764;28;100684;-71
2021/05/27 02:18:59;;;;;;;4.75;4.53;;;;;;;11.41;36.24;100579.06;4893998;28;100712;-72
2021/05/27 02:21:27;;;;;;;7.97;5.07;;;;;;;11.41;36.34;100581.72;4893204;28;96809;-71
2021/05/27 02:23:57;;;;;;;4.60;4.20;;;;;;;11.44;36.46;100578.19;4909041;28;97960;-72
2021/05/27 02:26:26;;;;;;;4.75;4.45;;;;;;;11.41;36.33;100583.50;4891191;28;97869;-72
2021/05/27 02:29:09;;;;;;;4.53;4.32;;;;;;;11.37;36.49;100574.56;4914330;28;98757;-73
2021/05/27 02:31:39;;;;;;;4.85;4.53;;;;;;;11.41;36.50;100581.72;4910043;28;98922;-72
2021/05/27 02:34:10;;;;;;;4.38;4.07;;;;;;;11.41;36.37;100589.72;4912442;28;97387;-72
2021/05/27 02:36:39;;;;;;;4.18;3.97;;;;;;;11.40;36.32;100587.91;4906107;28;98709;-72
2021/05/27 02:39:07;;;;;;;5.20;4.80;;;;;;;11.39;36.17;100586.13;4925386;28;100510;-72
2021/05/27 02:41:40;;;;;;;4.82;4.55;;;;;;;11.39;36.33;100586.13;4927741;28;97384;-72
2021/05/27 02:44:08;;;;;;;4.80;4.50;;;;;;;11.39;36.38;100585.25;4893284;28;97366;-72
2021/05/27 02:46:42;;;;;;;5.15;4.75;;;;;;;11.37;36.20;100590.53;4922569;28;97632;-72
2021/05/27 02:49:10;;;;;;;4.75;4.35;;;;;;;11.41;36.44;100587.06;4914187;28;98970;-72
2021/05/27 02:51:41;;;;;;;4.85;4.53;;;;;;;11.44;36.34;100587.09;4915768;28;96976;-71
2021/05/27 02:54:09;;;;;;;5.20;4.80;;;;;;;11.44;36.43;100592.44;4914065;28;97172;-70
2021/05/27 02:56:39;;;;;;;5.10;4.60;;;;;;;11.43;36.43;100589.75;4914316;28;96914;-72
2021/05/27 02:59:09;;;;;;;4.70;4.40;;;;;;;11.44;36.44;100588.84;4921337;28;97156;-72
2021/05/27 03:01:39;;;;;;;5.10;4.60;;;;;;;11.44;36.30;100594.19;4896431;28;97475;-73
2021/05/27 03:04:07;;;;;;;5.22;4.93;;;;;;;11.42;36.47;100594.16;4910557;28;98851;-72
2021/05/27 03:06:35;;;;;;;5.63;5.22;;;;;;;11.39;36.54;100596.81;4910256;28;99521;-72
2021/05/27 03:09:03;;;;;;;4.63;4.32;;;;;;;11.38;36.64;100594.97;4921679;28;100953;-72
2021/05/27 03:11:31;;;;;;;4.88;4.57;;;;;;;11.36;36.65;100594.06;4910497;28;97162;-72
2021/05/27 03:14:01;;;;;;;5.18;4.88;;;;;;;11.37;36.51;100603.88;4914817;28;96921;-72
2021/05/27 03:16:42;;;;;;;4.25;3.95;;;;;;;11.36;36.73;100601.19;4902290;28;101539;-72
2021/05/27 03:19:09;;;;;;;4.57;4.13;;;;;;;11.36;36.69;100602.06;4893163;28;99411;-73
2021/05/27 03:21:37;;;;;;;4.75;4.40;;;;;;;11.34;36.54;100598.50;4915623;28;96907;-71
2021/05/27 03:24:06;;;;;;;4.45;4.13;;;;;;;11.37;36.88;100606.53;4914361;28;96848;-72
2021/05/27 03:26:37;;;;;;;4.22;4.03;;;;;;;11.38;36.67;100594.97;4912633;28;96781;-72
2021/05/27 03:29:05;;;;;;;4.55;4.30;;;;;;;11.38;36.74;100602.97;4911904;28;98683;-72
2021/05/27 03:31:33;;;;;;;4.38;4.13;;;;;;;11.40;36.68;100603.00;4919618;28;97382;-72
2021/05/27 03:34:04;;;;;;;4.75;4.38;;;;;;;11.40;37.05;100611.00;4910965;28;97480;-72
2021/05/27 03:36:31;;;;;;;4.30;4.10;;;;;;;11.44;36.79;100611.06;4910892;28;99176;-72
2021/05/27 03:38:59;;;;;;;4.53;4.32;;;;;;;11.45;36.79;100602.19;4894204;28;100909;-72
2021/05/27 03:41:26;;;;;;;4.30;4.05;;;;;;;11.48;36.80;100612.00;4916906;28;97931;-72
2021/05/27 03:43:58;;;;;;;4.50;4.30;;;;;;;11.49;36.68;100616.50;4917285;28;97884;-71
2021/05/27 03:46:26;;;;;;;4.25;4.05;;;;;;;11.42;36.72;100618.16;4909869;28;97796;-73
2021/05/27 03:48:56;;;;;;;4.28;4.07;;;;;;;11.43;36.80;100614.63;4924523;28;98924;-72
2021/05/27 03:51:24;;;;;;;4.28;3.97;;;;;;;11.39;36.71;100618.09;4922840;28;96895;-72
2021/05/27 03:53:52;;;;;;;3.90;3.70;;;;;;;11.40;36.88;100613.66;4896934;28;96899;-71
2021/05/27 03:56:20;;;;;;;3.90;3.70;;;;;;;11.42;36.84;100611.91;4894866;28;99552;-71
2021/05/27 04:01:52;;;;;;;5.20;4.00;;;;;;;11.46;36.84;100621.75;4902258;28;98288;-72
2021/05/27 04:07:16;;;;;;;4.00;3.70;;;;;;;11.53;36.67;100624.53;4902997;28;97805;-71
2021/05/27 04:09:44;;;;;;;3.28;3.17;;;;;;;11.53;36.57;100632.53;4908072;28;97557;-71
2021/05/27 04:17:43;;;;;;;3.22;3.03;;;;;;;11.48;36.77;100634.22;4908489;28;97651;-71
2021/05/27 04:20:12;;;;;;;3.35;3.15;;;;;;;11.52;36.73;100629.84;4927535;28;98732;-72
2021/05/27 04:22:41;;;;;;;3.17;2.97;;;;;;;11.54;36.68;100622.78;4916093;28;98122;-71
2021/05/27 04:25:11;;;;;;;3.40;3.20;;;;;;;11.52;36.72;100638.75;4920578;28;98847;-73
2021/05/27 04:27:39;;;;;;;3.47;3.17;;;;;;;11.48;36.85;100641.31;4910288;28;99246;-72
2021/05/27 04:30:15;;;;;;;2.78;2.67;;;;;;;11.42;36.77;100647.44;4904980;28;98157;-72
2021/05/27 04:35:33;;;;;;;2.40;2.40;;;;;;;11.33;36.88;100654.41;4910190;28;97376;-71
2021/05/27 04:38:03;;;;;;;2.55;2.40;;;;;;;11.31;37.10;100646.38;4918020;28;100939;-71
2021/05/27 04:40:31;;;;;;;2.67;2.47;;;;;;;11.26;37.06;100664.03;4903885;28;97994;-71
2021/05/27 04:42:59;;;;;;;2.08;2.08;;;;;;;11.20;37.17;100653.28;4888979;28;96838;-71
2021/05/27 04:45:27;;;;;;;2.30;2.20;;;;;;;11.16;37.22;100657.66;4904646;28;96957;-71
2021/05/27 04:47:54;;;;;;;2.40;2.30;;;;;;;11.09;37.33;100660.19;4903937;28;98861;-72
2021/05/27 04:50:22;;;;;;;2.40;2.30;;;;;;;11.08;37.27;100661.06;4923213;28;102189;-71
2021/05/27 04:52:49;;;;;;;2.20;2.20;;;;;;;11.08;37.37;100663.72;4907243;28;98471;-71
2021/05/27 04:55:20;;;;;;;2.38;2.22;;;;;;;11.04;37.31;100672.53;4906181;28;97165;-72
2021/05/27 04:57:47;;;;;;;2.22;2.22;;;;;;;11.02;37.35;100655.63;4889594;28;99449;-72
2021/05/27 05:00:17;;;;;;;2.75;2.65;;;;;;;11.04;37.44;100665.44;4914486;28;97585;-71
2021/05/27 05:02:49;;;;;;;2.90;2.70;;;;;;;11.03;37.38;100676.06;4907232;28;96795;-71
2021/05/27 05:05:16;;;;;;;2.35;2.35;;;;;;;11.00;37.42;100670.69;4879421;28;97717;-71
2021/05/27 05:07:44;;;;;;;2.35;2.33;;;;;;;10.97;37.52;100670.63;4905002;28;97890;-71
2021/05/27 05:10:13;;;;;;;2.63;2.50;;;;;;;10.98;37.43;100662.66;4905339;28;98775;-72
2021/05/27 05:12:45;;;;;;;1.98;1.98;;;;;;;11.00;37.42;100681.31;4907201;28;97379;-71
2021/05/27 05:15:17;;;;;;;2.60;2.60;;;;;;;10.99;37.58;100663.56;4892467;28;97155;-71
2021/05/27 05:17:49;;;;;;;2.28;2.10;;;;;;;10.98;37.65;100667.09;4900942;28;97727;-70
2021/05/27 05:20:18;;;;;;;2.20;2.20;;;;;;;11.00;37.42;100666.25;4905778;28;100429;-71
2021/05/27 05:22:45;;;;;;;2.30;2.20;;;;;;;10.96;37.35;100669.72;4907412;28;97170;-71
2021/05/27 05:25:13;;;;;;;2.08;2.08;;;;;;;10.98;37.34;100675.06;4908293;28;97426;-71
2021/05/27 05:27:41;;;;;;;2.08;2.08;;;;;;;10.97;37.27;100674.19;4911628;28;98103;-71
2021/05/27 05:30:11;;;;;;;2.10;2.10;;;;;;;10.99;37.42;100676.88;4904617;28;99153;-71
2021/05/27 05:32:38;;;;;;;1.80;1.80;;;;;;;10.99;37.45;100684.88;4923376;28;97494;-71
2021/05/27 05:35:07;;;;;;;1.80;1.80;;;;;;;10.99;37.21;100684.88;4915343;28;97350;-71
2021/05/27 05:37:34;;;;;;;1.77;1.77;;;;;;;11.01;37.14;100677.81;4914612;28;98493;-71
2021/05/27 05:40:03;;;;;;;2.00;2.00;;;;;;;11.02;37.25;100674.28;4909901;28;100538;-71
2021/05/27 05:42:30;;;;;;;1.88;1.88;;;;;;;11.07;37.08;100680.56;4911056;28;97108;-71
2021/05/27 05:44:59;;;;;;;1.90;1.90;;;;;;;11.11;37.08;100678.00;4909272;28;97129;-71
2021/05/27 05:47:26;;;;;;;2.20;2.10;;;;;;;11.15;36.99;100692.25;4906762;28;97985;-71
2021/05/27 05:49:53;;;;;;;2.30;2.28;;;;;;;11.19;36.81;100683.47;4912126;28;100710;-72
2021/05/27 05:52:21;;;;;;;1.98;1.98;;;;;;;11.18;36.82;100684.31;4925444;28;96921;-71
2021/05/27 05:54:48;;;;;;;2.15;2.15;;;;;;;11.27;36.92;100692.44;4926727;28;96837;-72
2021/05/27 05:57:15;;;;;;;2.15;2.05;;;;;;;11.26;36.92;100692.44;4909878;28;99513;-70
2021/05/27 05:59:43;;;;;;;1.98;1.92;;;;;;;11.27;36.97;100703.09;4908862;28;97031;-71
2021/05/27 06:02:11;;;;;;;2.13;2.13;;;;;;;11.32;37.02;100701.47;4900994;28;96741;-71
2021/05/27 06:04:39;;;;;;;2.05;2.05;;;;;;;11.36;36.78;100708.63;4901779;28;97044;-71
2021/05/27 06:07:26;;;;;;;1.65;1.65;;;;;;;11.31;36.80;100686.34;4906543;28;97792;-71
2021/05/27 06:09:53;;;;;;;1.90;1.85;;;;;;;11.34;36.85;100690.84;4905495;28;99220;-71
2021/05/27 06:12:21;;;;;;;1.80;1.80;;;;;;;11.35;36.83;100697.94;4915598;28;97270;-71
2021/05/27 06:14:48;;;;;;;1.80;1.80;;;;;;;11.33;36.67;100705.91;4909656;28;96778;-71
2021/05/27 06:17:16;;;;;;;1.70;1.70;;;;;;;11.31;36.78;100707.66;4911997;28;97716;-71
2021/05/27 06:19:43;;;;;;;1.67;1.67;;;;;;;11.31;36.75;100718.31;4865706;28;1308369;-72
2021/05/27 06:22:25;;;;;;;1.80;1.80;;;;;;;11.29;36.90;100717.34;4900416;28;97941;-72
2021/05/27 06:24:54;;;;;;;1.70;1.70;;;;;;;11.31;36.97;100707.66;4899739;28;98129;-72
2021/05/27 06:27:21;;;;;;;1.63;1.63;;;;;;;11.32;36.82;100713.91;4909152;28;100338;-71
2021/05/27 06:29:50;;;;;;;1.83;1.83;;;;;;;11.40;36.69;100713.13;4907467;28;96753;-71
2021/05/27 06:32:18;;;;;;;2.00;2.00;;;;;;;11.39;36.66;100723.78;4913165;28;97229;-72
2021/05/27 06:34:45;;;;;;;1.60;1.50;;;;;;;11.39;36.58;100722.03;4913778;28;97197;-72
2021/05/27 06:37:13;;;;;;;1.65;1.65;;;;;;;11.42;36.80;100730.06;4903198;28;100429;-72
2021/05/27 06:39:41;;;;;;;1.45;1.45;;;;;;;11.44;36.77;100728.31;4920723;28;97743;-72
2021/05/27 06:42:08;;;;;;;2.00;1.90;;;;;;;11.49;36.64;100725.75;4921358;28;97307;-72
2021/05/27 06:44:38;;;;;;;1.75;1.75;;;;;;;11.56;36.70;100727.63;4895815;28;96860;-69
2021/05/27 06:47:06;;;;;;;2.53;1.83;;;;;;;11.59;36.53;100717.91;4904554;28;99287;-72
2021/05/27 06:49:34;;;;;;;1.40;1.40;;;;;;;11.57;36.71;100732.06;4926577;28;97846;-71
2021/05/27 06:52:01;;;;;;;1.60;1.60;;;;;;;11.60;36.52;100735.69;4915161;28;97393;-71
2021/05/27 06:54:30;;;;;;;1.80;1.80;;;;;;;11.62;36.53;100722.38;4913161;28;97147;-71
2021/05/27 06:56:58;;;;;;;1.90;1.80;;;;;;;11.68;36.53;100722.47;4921973;28;99318;-71
2021/05/27 06:59:25;;;;;;;1.70;1.70;;;;;;;11.71;36.45;100734.09;4906582;28;98812;-71
2021/05/27 07:01:52;;;;;;;1.63;1.63;;;;;;;11.75;36.30;100730.59;4928904;28;96896;-72
2021/05/27 07:04:20;;;;;;;1.70;1.70;;;;;;;11.82;36.11;100742.25;4898983;28;97405;-71
2021/05/27 07:06:49;;;;;;;1.70;1.70;;;;;;;11.77;36.28;100723.53;4892855;28;99137;-71
2021/05/27 07:09:16;;;;;;;1.85;1.75;;;;;;;11.78;36.39;100713.78;4918625;28;98127;-71
2021/05/27 07:11:43;;;;;;;1.55;1.55;;;;;;;11.81;36.15;100724.47;4913123;28;97257;-72
2021/05/27 07:14:11;;;;;;;2.00;2.00;;;;;;;11.83;36.29;100728.97;4924338;28;97396;-73
2021/05/27 07:16:38;;;;;;;1.95;1.83;;;;;;;11.86;36.38;100721.00;4893835;28;100480;-73
2021/05/27 07:19:05;;;;;;;1.60;1.60;;;;;;;11.93;36.27;100735.31;4907745;28;100418;-72
2021/05/27 07:21:33;;;;;;;1.67;1.60;;;;;;;11.93;36.21;100730.88;4911176;28;96916;-72
2021/05/27 07:24:02;;;;;;;1.80;1.70;;;;;;;11.97;36.20;100732.72;4904613;28;97287;-72
2021/05/27 07:26:29;;;;;;;1.75;1.75;;;;;;;12.01;36.16;100733.66;4891071;28;99680;-72
2021/05/27 07:28:57;;;;;;;1.83;1.77;;;;;;;12.08;36.11;100743.53;4917525;28;97716;-72
2021/05/27 07:31:24;;;;;;;1.67;1.67;;;;;;;12.11;35.81;100739.13;4909296;28;97331;-73
2021/05/27 07:33:52;;;;;;;1.80;1.70;;;;;;;12.15;35.99;100743.66;4898778;28;96842;-73
2021/05/27 07:36:19;;;;;;;1.70;1.70;;;;;;;12.19;36.05;100733.94;4915993;28;99064;-73
2021/05/27 07:38:51;;;;;;;1.75;1.75;;;;;;;12.23;35.93;100745.56;4902461;28;98662;-73
2021/05/27 07:41:19;;;;;;;1.75;1.75;;;;;;;12.25;35.92;100738.47;4907170;28;97340;-73
2021/05/27 07:43:47;;;;;;;1.60;1.60;;;;;;;12.26;35.83;100767.84;4919431;28;97251;-73
2021/05/27 07:46:14;;;;;;;1.83;1.80;;;;;;;12.22;36.06;100747.31;4910028;28;96895;-73
2021/05/27 07:48:42;;;;;;;1.65;1.65;;;;;;;12.25;36.07;100757.16;4907976;28;97206;-73
2021/05/27 07:51:09;;;;;;;1.80;1.80;;;;;;;12.21;36.12;100736.63;4918801;28;96767;-73
2021/05/27 07:53:36;;;;;;;1.92;1.77;;;;;;;12.21;36.05;100776.66;4912789;28;96865;-72
2021/05/27 07:56:05;;;;;;;1.60;1.60;;;;;;;12.16;36.10;100761.44;4919368;28;99742;-73
2021/05/27 07:58:35;;;;;;;1.80;1.73;;;;;;;12.14;36.29;100756.97;4914413;28;97542;-73
2021/05/27 08:01:04;;;;;;;1.40;1.40;;;;;;;12.11;36.23;100749.81;4925816;28;97174;-73
2021/05/27 08:03:32;;;;;;;1.50;1.50;;;;;;;12.12;36.33;100761.38;4907914;28;96765;-73
2021/05/27 08:05:59;;;;;;;1.75;1.65;;;;;;;12.10;36.17;100766.69;4898168;28;100356;-72
2021/05/27 08:08:27;;;;;;;1.80;1.80;;;;;;;12.12;36.21;100758.72;4911713;28;100026;-73
2021/05/27 08:10:54;;;;;;;2.08;1.90;;;;;;;12.12;36.27;100753.38;4910367;28;97355;-73
2021/05/27 08:13:22;;;;;;;1.77;1.77;;;;;;;12.16;36.23;100763.22;4910995;28;96688;-73
2021/05/27 08:15:50;;;;;;;1.80;1.80;;;;;;;12.22;36.18;100770.47;4916662;28;98565;-73
2021/05/27 08:18:17;;;;;;;2.00;2.00;;;;;;;12.22;36.08;100754.44;4925056;28;98079;-73
2021/05/27 08:20:44;;;;;;;1.70;1.70;;;;;;;12.26;35.98;100746.50;4907827;28;96718;-73
2021/05/27 08:23:12;;;;;;;2.28;2.00;;;;;;;12.38;35.75;100754.69;4917574;28;97088;-73
2021/05/27 08:25:43;;;;;;;1.92;1.83;;;;;;;12.47;35.76;100756.56;4912806;28;100758;-74
2021/05/27 08:28:11;;;;;;;2.13;2.03;;;;;;;12.53;35.72;100752.19;4917352;28;99545;-73
2021/05/27 08:30:38;;;;;;;1.70;1.70;;;;;;;12.61;35.61;100768.31;4917476;28;96987;-73
2021/05/27 08:33:06;;;;;;;1.98;1.88;;;;;;;12.65;35.57;100752.34;4922685;28;97046;-73
2021/05/27 08:35:34;;;;;;;2.00;1.90;;;;;;;12.71;35.38;100755.06;4913794;28;97716;-73
2021/05/27 08:38:01;;;;;;;1.90;1.90;;;;;;;12.76;35.38;100752.47;4909830;28;99147;-73
2021/05/27 08:40:29;;;;;;;1.95;1.95;;;;;;;12.83;35.40;100759.69;4911897;28;96995;-73
2021/05/27 08:42:58;;;;;;;2.10;2.00;;;;;;;12.83;35.37;100757.00;4908524;28;96806;-73
2021/05/27 08:45:28;;;;;;;2.20;2.20;;;;;;;12.89;35.33;100757.09;4909170;28;96965;-73
2021/05/27 08:47:58;;;;;;;2.00;2.00;;;;;;;12.90;35.33;100767.78;4907583;28;100526;-73
2021/05/27 08:50:30;;;;;;;2.00;2.00;;;;;;;12.89;35.29;100778.44;4914936;28;97030;-73
2021/05/27 08:52:58;;;;;;;1.75;1.75;;;;;;;12.85;35.43;100755.25;4915503;28;97031;-73
2021/05/27 08:55:29;;;;;;;2.40;2.00;;;;;;;12.81;35.46;100764.09;4911200;28;99067;-72
2021/05/27 08:57:56;;;;;;;1.90;1.90;;;;;;;12.75;35.56;100772.03;4918577;28;97586;-73
2021/05/27 09:00:23;;;;;;;2.10;2.00;;;;;;;12.76;35.78;100771.16;4913481;28;97219;-72
2021/05/27 09:02:55;;;;;;;2.28;1.90;;;;;;;12.73;35.91;100784.50;4914787;28;96923;-73
2021/05/27 09:05:23;;;;;;;1.80;1.80;;;;;;;12.69;35.74;100782.66;4913546;28;98918;-72
2021/05/27 09:07:52;;;;;;;3.90;2.20;;;;;;;12.66;36.24;100780.84;4907698;28;99900;-72
2021/05/27 09:10:19;;;;;;;2.30;2.20;;;;;;;12.66;35.91;100780.84;4916021;28;96850;-73
2021/05/27 09:12:47;;;;;;;1.70;1.70;;;;;;;12.72;35.85;100772.00;4893945;28;97960;-73
2021/05/27 09:15:22;;;;;;;1.98;1.98;;;;;;;12.87;36.19;100785.53;4915147;28;97751;-72
2021/05/27 09:17:52;;;;;;;1.70;1.60;;;;;;;12.85;35.84;100772.19;4905840;28;99192;-73
2021/05/27 09:20:21;;;;;;;1.70;1.70;;;;;;;12.79;35.77;100798.81;4909876;28;96863;-73
2021/05/27 09:23:09;;;;;;;1.60;1.60;;;;;;;12.70;36.38;100801.38;4921642;28;96918;-73
2021/05/27 09:25:44;;;;;;;1.73;1.73;;;;;;;12.67;35.99;100801.34;4912241;28;96833;-73
2021/05/27 09:28:17;;;;;;;1.70;1.70;;;;;;;12.66;36.00;100786.16;4911589;28;99239;-73
2021/05/27 09:30:47;;;;;;;1.48;1.48;;;;;;;12.69;36.11;100786.19;4907855;28;97001;-73
2021/05/27 09:33:15;;;;;;;1.77;1.77;;;;;;;12.69;36.15;100802.22;4915072;28;96747;-72
2021/05/27 09:35:43;;;;;;;3.25;1.88;;;;;;;12.66;36.09;100802.19;4909216;28;100431;-73
2021/05/27 09:38:12;;;;;;;1.70;1.70;;;;;;;12.68;36.11;100804.88;4890242;28;99274;-73
2021/05/27 09:40:42;;;;;;;2.83;2.72;;;;;;;12.73;36.25;100801.38;4916349;28;96843;-73
2021/05/27 09:43:12;;;;;;;1.75;1.75;;;;;;;12.83;36.00;100805.06;4918497;28;96806;-73
2021/05/27 09:45:40;;;;;;;1.70;1.60;;;;;;;12.95;35.86;100808.78;4908729;28;98854;-73
2021/05/27 09:48:20;;;;;;;1.60;1.60;;;;;;;13.01;35.90;100800.88;4910963;28;99200;-72
2021/05/27 09:50:48;;;;;;;1.67;1.67;;;;;;;13.03;35.45;100812.50;4911435;28;96848;-72
2021/05/27 09:53:19;;;;;;;1.77;1.40;;;;;;;12.89;35.94;100797.16;4914791;28;96971;-72
2021/05/27 09:55:47;;;;;;;1.73;1.52;;;;;;;12.87;35.89;100806.91;4909393;28;98630;-71
2021/05/27 09:58:16;;;;;;;1.30;1.30;;;;;;;12.87;36.03;100820.25;4911926;28;100294;-73
2021/05/27 10:00:45;;;;;;;2.28;1.77;;;;;;;12.92;35.92;100821.22;4918202;28;97368;-73
2021/05/27 10:03:24;;;;;;;1.45;1.45;;;;;;;13.14;35.95;100818.84;4908778;28;98360;-73
2021/05/27 10:05:52;;;;;;;1.40;1.40;;;;;;;13.22;35.53;100815.38;4906978;28;100233;-73
2021/05/27 10:08:20;;;;;;;1.52;1.52;;;;;;;13.31;35.46;100803.00;4909454;28;98858;-73
2021/05/27 10:11:08;;;;;;;1.40;1.40;;;;;;;13.38;35.35;100807.53;4928358;28;96713;-72
2021/05/27 10:13:36;;;;;;;1.70;1.70;;;;;;;13.32;35.78;100807.47;4913512;28;97018;-73
2021/05/27 10:16:05;;;;;;;1.58;1.45;;;;;;;13.50;35.24;100794.25;4908773;28;98974;-73
2021/05/27 10:18:32;;;;;;;1.48;1.48;;;;;;;13.44;34.95;100799.53;4926033;28;99375;-73
2021/05/27 10:21:02;;;;;;;1.20;1.20;;;;;;;13.51;34.79;100812.13;4909571;28;96872;-73
2021/05/27 10:23:30;;;;;;;1.35;1.30;;;;;;;13.62;34.34;100810.41;4913283;28;97171;-72
2021/05/27 10:25:57;;;;;;;1.20;1.20;;;;;;;13.80;33.97;100818.66;4920123;28;99348;-73
2021/05/27 10:28:26;;;;;;;1.13;1.13;;;;;;;13.88;33.78;100808.00;4926567;28;96806;-72
2021/05/27 10:30:54;;;;;;;1.00;1.00;;;;;;;13.94;33.65;100811.63;4909964;28;97162;-72
2021/05/27 10:33:21;;;;;;;1.40;1.40;;;;;;;14.04;33.72;100828.66;4911806;28;96792;-72
2021/05/27 10:35:54;;;;;;;1.45;1.45;;;;;;;14.07;33.64;100850.09;4912118;28;98134;-72
2021/05/27 10:38:47;;;;;;;1.30;1.30;;;;;;;14.02;33.64;100847.34;4912667;28;100377;-74
2021/05/27 10:41:16;;;;;;;1.20;1.20;;;;;;;13.84;33.54;100847.19;4902015;28;96831;-72
2021/05/27 10:44:15;;;;;;;1.30;1.25;;;;;;;13.70;34.22;100854.19;4907521;28;97854;-73
2021/05/27 10:47:17;;;;;;;1.15;1.15;;;;;;;13.72;34.32;100836.38;4889835;28;98955;-72
2021/05/27 10:49:52;;;;;;;1.10;1.10;;;;;;;13.70;34.21;100851.50;4908699;28;98983;-72
2021/05/27 10:52:44;;;;;;;1.30;1.30;;;;;;;13.63;34.42;100836.28;4917006;28;97144;-73
2021/05/27 10:55:52;;;;;;;1.50;1.50;;;;;;;13.58;34.80;100843.38;4908171;28;96961;-72
2021/05/27 10:58:25;;;;;;;1.30;1.30;;;;;;;13.53;34.70;100866.47;4908041;28;98020;-72
2021/05/27 11:00:54;;;;;;;1.20;1.20;;;;;;;13.53;34.58;100845.09;4895614;28;98852;-72
2021/05/27 11:03:44;;;;;;;1.00;1.00;;;;;;;13.53;34.58;100852.22;4906126;28;98014;-72
2021/05/27 11:06:26;;;;;;;1.20;1.20;;;;;;;13.41;34.82;100858.34;4899034;28;97492;-73
2021/05/27 11:09:31;;;;;;;1.15;1.15;;;;;;;13.28;34.89;100843.03;4913047;28;98604;-73
2021/05/27 11:12:23;;;;;;;1.15;1.15;;;;;;;13.20;34.90;100866.13;4910413;28;99319;-72
2021/05/27 11:15:15;;;;;;;1.00;1.00;;;;;;;13.14;34.83;100860.69;4915285;28;96787;-71
2021/05/27 11:17:58;;;;;;;1.23;1.23;;;;;;;13.10;35.07;100853.53;4910290;28;97443;-70
2021/05/27 11:20:28;;;;;;;1.30;1.30;;;;;;;13.16;35.10;100842.91;4912912;28;97396;-71
2021/05/27 11:23:00;;;;;;;1.23;1.23;;;;;;;13.26;34.71;100844.78;4910361;28;97694;-71
2021/05/27 11:25:34;;;;;;;1.35;1.30;;;;;;;13.27;34.72;100835.91;4896156;28;96951;-71
2021/05/27 11:28:26;;;;;;;1.48;1.48;;;;;;;13.38;34.74;100855.63;4915945;28;96879;-71
2021/05/27 11:30:56;;;;;;;1.20;1.20;;;;;;;13.38;34.46;100850.28;4924981;28;97946;-71
2021/05/27 11:33:49;;;;;;;1.27;1.27;;;;;;;13.44;34.60;100863.69;4916027;28;99491;-72
2021/05/27 11:36:26;;;;;;;1.40;1.40;;;;;;;13.43;34.65;100851.22;4931219;28;98266;-71
2021/05/27 11:38:55;;;;;;;1.45;1.45;;;;;;;13.40;35.23;100877.03;4910140;28;97330;-72
2021/05/27 11:41:23;;;;;;;1.20;1.20;;;;;;;13.50;34.88;100854.84;4915556;28;100858;-71
2021/05/27 11:43:56;;;;;;;1.20;1.20;;;;;;;13.51;35.09;100868.25;4904276;28;100297;-71
2021/05/27 11:46:29;;;;;;;1.20;1.20;;;;;;;13.51;34.95;100862.00;4909888;28;97493;-72
2021/05/27 11:49:01;;;;;;;1.50;1.50;;;;;;;13.50;34.92;100861.09;4901256;28;99032;-71
2021/05/27 11:51:35;;;;;;;1.30;1.30;;;;;;;13.53;34.91;100865.59;4905834;28;97687;-71
2021/05/27 11:54:05;;;;;;;1.40;1.40;;;;;;;13.58;34.82;100866.53;4905918;28;97567;-71